Time;durP1;ratioP1;P1;durP2;ratioP2;P2;SDS_P1;SDS_P2;PMS_P1;PMS_P2;Temp;Humidity;BMP_temperature;BMP_pressure;BME280_temperature;BME280_humidity;BME280_pressure;Samples;Min_cycle;Max_cycle;Signal;HPM_P1;HPM_P2
2022/09/29 00:01:41;;;;;;;13.02;11.75;;;;;;;7.38;100.00;99785.66;5014707;28;20258;-48
2022/09/29 00:04:08;;;;;;;13.43;12.13;;;;;;;7.34;100.00;99786.72;5025343;28;20630;-50
2022/09/29 00:06:33;;;;;;;12.30;10.63;;;;;;;7.42;100.00;99789.09;5026777;28;20189;-49
2022/09/29 00:08:59;;;;;;;13.20;11.82;;;;;;;7.38;100.00;99788.34;5016789;28;20200;-50
2022/09/29 00:11:24;;;;;;;12.43;11.25;;;;;;;7.38;100.00;99791.00;5016413;28;20312;-49
2022/09/29 00:13:50;;;;;;;11.98;10.70;;;;;;;7.41;100.00;99793.56;5013530;28;20188;-48
2022/09/29 00:16:16;;;;;;;13.25;11.95;;;;;;;7.38;100.00;99796.31;5016174;28;20231;-50
2022/09/29 00:18:41;;;;;;;13.75;12.30;;;;;;;7.36;100.00;99795.53;5013676;28;20269;-50
2022/09/29 00:21:10;;;;;;;12.43;11.35;;;;;;;7.36;100.00;99792.00;5018103;28;20220;-49
2022/09/29 00:23:36;;;;;;;13.90;12.40;;;;;;;7.34;100.00;99783.19;5015752;28;20202;-49
2022/09/29 00:26:09;;;;;;;12.07;10.90;;;;;;;7.31;100.00;99789.53;5018399;28;20189;-50
2022/09/29 00:28:37;;;;;;;12.02;10.95;;;;;;;7.31;100.00;99783.34;5020054;28;20216;-48
2022/09/29 00:31:04;;;;;;;12.02;10.93;;;;;;;7.28;100.00;99786.13;5027716;28;20218;-50
2022/09/29 00:33:31;;;;;;;13.65;11.93;;;;;;;7.23;100.00;99789.84;5019679;28;20196;-51
2022/09/29 00:36:03;;;;;;;12.20;10.93;;;;;;;7.28;100.00;99796.78;5014885;28;20666;-50
2022/09/29 00:38:29;;;;;;;13.20;12.00;;;;;;;7.19;100.00;99795.34;5017047;28;20289;-52
2022/09/29 00:40:55;;;;;;;11.52;10.43;;;;;;;7.25;100.00;99800.44;5019771;28;20231;-50
2022/09/29 00:43:41;;;;;;;10.88;9.88;;;;;;;7.28;100.00;99792.34;5021096;28;20204;-49
2022/09/29 00:46:06;;;;;;;13.25;11.80;;;;;;;7.16;100.00;99784.84;5025281;28;20180;-49
2022/09/29 00:48:32;;;;;;;11.82;10.73;;;;;;;7.15;100.00;99791.06;5018763;28;20196;-49
2022/09/29 00:50:58;;;;;;;12.57;11.35;;;;;;;7.08;100.00;99787.78;5019642;28;20215;-49
2022/09/29 00:53:25;;;;;;;13.77;12.48;;;;;;;7.12;100.00;99780.56;5019867;28;20191;-49
2022/09/29 00:55:58;;;;;;;12.38;11.18;;;;;;;7.16;100.00;99782.19;5026302;28;20179;-50
2022/09/29 00:58:26;;;;;;;12.18;10.95;;;;;;;7.23;100.00;99791.63;5029349;28;20226;-49
2022/09/29 01:00:53;;;;;;;14.23;12.93;;;;;;;7.15;100.00;99783.09;5020654;28;20233;-50
2022/09/29 01:03:21;;;;;;;14.98;13.57;;;;;;;7.21;100.00;99782.84;5015830;28;20538;-52
2022/09/29 01:05:55;;;;;;;13.98;12.55;;;;;;;7.25;100.00;99795.09;5016913;28;20196;-49
2022/09/29 01:08:29;;;;;;;17.00;12.65;;;;;;;7.22;100.00;99784.59;5015791;28;20187;-50
2022/09/29 01:10:56;;;;;;;14.35;13.05;;;;;;;7.19;100.00;99784.69;5015639;28;20690;-50
2022/09/29 01:13:22;;;;;;;14.25;12.70;;;;;;;7.16;100.00;99784.84;5014105;28;20179;-50
2022/09/29 01:15:48;;;;;;;15.98;14.45;;;;;;;7.13;100.00;99784.97;5021610;28;20184;-50
2022/09/29 01:18:13;;;;;;;15.55;13.95;;;;;;;7.13;100.00;99796.50;5026414;28;20188;-49
2022/09/29 01:21:14;;;;;;;15.35;13.77;;;;;;;7.13;100.00;99795.63;5020695;28;20231;-50
2022/09/29 01:23:50;;;;;;;15.75;14.25;;;;;;;7.17;100.00;99789.22;5024751;28;20202;-53
2022/09/29 01:27:01;;;;;;;16.05;14.55;;;;;;;7.14;100.00;99795.53;5020359;28;20169;-50
2022/09/29 01:30:03;;;;;;;16.65;15.02;;;;;;;7.18;100.00;99788.31;4974163;28;20299;-52
2022/09/29 01:33:08;;;;;;;18.40;16.55;;;;;;;7.08;100.00;99794.94;5017274;28;20175;-53
2022/09/29 01:36:15;;;;;;;17.25;15.65;;;;;;;7.10;100.00;99790.41;5025126;28;20184;-49
2022/09/29 01:38:53;;;;;;;17.30;15.60;;;;;;;7.10;100.00;99793.06;5015683;28;20338;-51
2022/09/29 01:41:43;;;;;;;18.02;16.20;;;;;;;7.13;100.00;99800.97;5016300;28;20215;-50
2022/09/29 01:44:14;;;;;;;18.00;16.13;;;;;;;7.08;100.00;99793.13;5019783;28;20222;-50
2022/09/29 01:46:48;;;;;;;18.13;16.13;;;;;;;6.99;100.00;99794.38;5021368;28;20183;-48
2022/09/29 01:49:17;;;;;;;17.50;15.88;;;;;;;7.04;100.00;99803.97;5013255;28;20206;-50
2022/09/29 01:51:52;;;;;;;18.02;16.23;;;;;;;7.05;100.00;99800.41;5015143;28;20235;-50
2022/09/29 01:54:24;;;;;;;17.95;16.27;;;;;;;7.00;100.00;99801.44;5017542;28;20781;-47
2022/09/29 01:56:59;;;;;;;19.02;17.23;;;;;;;6.98;100.00;99797.97;5018997;28;20203;-50
2022/09/29 01:59:32;;;;;;;17.83;16.05;;;;;;;7.03;100.00;99794.25;5021457;28;20184;-51
2022/09/29 02:02:02;;;;;;;16.10;14.60;;;;;;;7.08;100.00;99806.44;5014712;28;20208;-52
2022/09/29 02:04:41;;;;;;;17.27;15.45;;;;;;;7.13;100.00;99803.63;5013039;28;20212;-50
2022/09/29 02:07:15;;;;;;;19.52;17.40;;;;;;;7.06;100.00;99800.31;5017581;28;20327;-50
2022/09/29 02:09:44;;;;;;;17.13;15.35;;;;;;;7.06;100.00;99792.31;5026328;28;20289;-50
2022/09/29 02:12:14;;;;;;;17.70;16.00;;;;;;;7.10;100.00;99793.06;5019372;28;20188;-51
2022/09/29 02:14:44;;;;;;;18.05;16.23;;;;;;;6.99;100.00;99797.03;5014920;28;20189;-49
2022/09/29 02:17:28;;;;;;;19.85;17.85;;;;;;;7.04;100.00;99788.88;5022058;28;20262;-49
2022/09/29 02:19:54;;;;;;;16.83;15.23;;;;;;;7.02;100.00;99790.75;5017046;28;20200;-49
2022/09/29 02:22:20;;;;;;;15.75;14.35;;;;;;;7.10;100.00;99795.75;5013507;28;20203;-49
2022/09/29 02:24:46;;;;;;;19.30;17.50;;;;;;;7.00;100.00;99792.59;5019171;28;20187;-50
2022/09/29 02:27:12;;;;;;;16.67;15.07;;;;;;;7.10;100.00;99798.41;5018629;28;20518;-49
2022/09/29 02:29:37;;;;;;;20.10;16.83;;;;;;;7.05;100.00;99781.75;5017320;28;20196;-49
2022/09/29 02:32:05;;;;;;;17.05;15.20;;;;;;;7.07;100.00;99785.22;5016662;28;20192;-51
2022/09/29 02:34:34;;;;;;;17.15;15.63;;;;;;;7.15;100.00;99788.41;5016428;28;20238;-45
2022/09/29 02:37:22;;;;;;;17.55;15.80;;;;;;;7.05;100.00;99787.06;5014298;28;20211;-44
2022/09/29 02:40:02;;;;;;;18.90;17.00;;;;;;;7.10;100.00;99783.28;5013584;28;20220;-44
2022/09/29 02:42:54;;;;;;;19.42;17.35;;;;;;;7.04;100.00;99774.66;5017265;28;20208;-47
2022/09/29 02:45:34;;;;;;;19.70;17.60;;;;;;;7.07;100.00;99782.56;5013385;28;20199;-44
2022/09/29 02:48:17;;;;;;;21.45;19.38;;;;;;;6.99;100.00;99788.19;5020208;28;20253;-44
2022/09/29 02:51:08;;;;;;;20.50;18.35;;;;;;;7.05;100.00;99784.41;5025524;28;20231;-44
2022/09/29 02:53:40;;;;;;;19.77;17.88;;;;;;;7.10;100.00;99785.94;5019616;28;20184;-46
2022/09/29 02:56:19;;;;;;;23.83;21.38;;;;;;;7.12;100.00;99778.75;5019715;28;20351;-44
2022/09/29 02:59:05;;;;;;;23.38;20.92;;;;;;;7.09;100.00;99786.88;5016296;28;20175;-44
2022/09/29 03:01:32;;;;;;;24.85;22.35;;;;;;;7.09;100.00;99788.69;5015887;28;20266;-44
2022/09/29 03:03:58;;;;;;;24.00;21.60;;;;;;;7.07;100.00;99777.22;5011032;28;20168;-46
2022/09/29 03:06:23;;;;;;;22.98;20.70;;;;;;;7.07;100.00;99778.09;5020046;28;20274;-43
2022/09/29 03:08:48;;;;;;;25.58;22.80;;;;;;;7.13;100.00;99771.66;5017693;28;20616;-43
2022/09/29 03:11:14;;;;;;;25.67;22.90;;;;;;;7.18;100.00;99782.97;5017241;28;20200;-46
2022/09/29 03:13:39;;;;;;;25.15;22.58;;;;;;;7.19;100.00;99774.94;5015277;28;20188;-45
2022/09/29 03:16:05;;;;;;;25.55;22.85;;;;;;;7.14;100.00;99776.91;5022740;28;21115;-46
2022/09/29 03:18:30;;;;;;;28.13;24.90;;;;;;;7.09;100.00;99780.69;5019577;28;20659;-43
2022/09/29 03:20:56;;;;;;;25.90;23.27;;;;;;;7.11;100.00;99779.69;5017566;28;20738;-44
2022/09/29 03:23:21;;;;;;;28.23;24.42;;;;;;;7.12;100.00;99775.22;5013134;28;20200;-43
2022/09/29 03:25:47;;;;;;;28.08;25.17;;;;;;;7.03;100.00;99775.63;5014836;28;20187;-46
2022/09/29 03:28:13;;;;;;;27.80;24.38;;;;;;;7.07;100.00;99775.44;5011917;28;20193;-45
2022/09/29 03:30:38;;;;;;;26.80;23.90;;;;;;;7.13;100.00;99776.97;5013521;28;20683;-44
2022/09/29 03:33:03;;;;;;;27.50;24.50;;;;;;;7.09;100.00;99783.38;5017954;28;20172;-43
2022/09/29 03:35:29;;;;;;;25.80;23.10;;;;;;;7.05;100.00;99777.28;5014334;28;20204;-44
2022/09/29 03:37:59;;;;;;;27.83;24.83;;;;;;;7.07;100.00;99777.22;5013172;28;20319;-43
2022/09/29 03:40:28;;;;;;;25.00;22.52;;;;;;;7.14;100.00;99781.38;5010991;28;20216;-45
2022/09/29 03:42:53;;;;;;;26.83;24.02;;;;;;;7.13;100.00;99783.16;5014743;28;20201;-44
2022/09/29 03:45:18;;;;;;;28.10;25.25;;;;;;;7.11;100.00;99782.38;5014653;28;20682;-44
2022/09/29 03:47:44;;;;;;;26.48;22.65;;;;;;;7.13;100.00;99782.31;5018530;28;20199;-42
2022/09/29 03:50:11;;;;;;;28.70;25.60;;;;;;;7.06;100.00;99781.66;5018672;28;20221;-46
2022/09/29 03:52:36;;;;;;;26.30;23.48;;;;;;;7.09;100.00;99794.00;5012785;28;20251;-43
2022/09/29 03:55:02;;;;;;;27.10;24.10;;;;;;;7.09;100.00;99791.34;5014767;28;20219;-45
2022/09/29 03:57:27;;;;;;;27.15;24.30;;;;;;;7.10;100.00;99795.75;5015521;28;20183;-43
2022/09/29 03:59:53;;;;;;;28.02;24.80;;;;;;;7.12;100.00;99796.53;5018963;28;20628;-44
2022/09/29 04:02:19;;;;;;;25.98;23.30;;;;;;;7.17;100.00;99797.22;5021670;28;20208;-44
2022/09/29 04:04:45;;;;;;;24.55;22.05;;;;;;;7.19;100.00;99798.91;5019463;28;20232;-45
2022/09/29 04:07:10;;;;;;;24.52;21.92;;;;;;;7.11;100.00;99795.69;5014312;28;20298;-43
2022/09/29 04:09:36;;;;;;;27.85;24.95;;;;;;;7.08;100.00;99793.13;5014572;28;20200;-43
2022/09/29 04:12:01;;;;;;;26.08;23.05;;;;;;;7.14;100.00;99803.53;5014484;28;20220;-44
2022/09/29 04:14:27;;;;;;;24.27;21.80;;;;;;;7.16;100.00;99799.00;5021780;28;20180;-43
2022/09/29 04:16:52;;;;;;;28.25;24.63;;;;;;;7.13;100.00;99800.97;5021919;28;20247;-43
2022/09/29 04:19:18;;;;;;;25.95;22.67;;;;;;;7.15;100.00;99815.06;5018162;28;20200;-43
2022/09/29 04:21:44;;;;;;;26.55;23.75;;;;;;;7.13;100.00;99812.47;5016930;28;20197;-43
2022/09/29 04:24:10;;;;;;;26.75;23.67;;;;;;;7.09;100.00;99805.53;5027912;28;20596;-44
2022/09/29 04:26:36;;;;;;;27.00;24.20;;;;;;;7.06;100.00;99805.63;5019221;28;20238;-44
2022/09/29 04:29:01;;;;;;;27.17;24.13;;;;;;;7.09;100.00;99810.00;5023853;28;20689;-43
2022/09/29 04:31:27;;;;;;;27.27;24.17;;;;;;;7.15;100.00;99804.41;5019124;28;20275;-43
2022/09/29 04:33:53;;;;;;;29.13;24.67;;;;;;;7.16;100.00;99816.81;5017132;28;20690;-44
2022/09/29 04:36:18;;;;;;;29.52;25.35;;;;;;;7.13;100.00;99822.28;5017662;28;20184;-45
2022/09/29 04:38:44;;;;;;;29.08;25.90;;;;;;;7.15;100.00;99809.72;5018115;28;20303;-44
2022/09/29 04:41:09;;;;;;;26.48;23.70;;;;;;;7.17;100.00;99816.75;5017182;28;20207;-44
2022/09/29 04:43:34;;;;;;;29.58;24.75;;;;;;;7.18;100.00;99817.59;5019185;28;20204;-42
2022/09/29 04:46:07;;;;;;;29.90;25.45;;;;;;;7.12;100.00;99812.53;5026974;28;20229;-43
2022/09/29 04:48:34;;;;;;;28.83;23.95;;;;;;;7.12;100.00;99816.03;5019379;28;20196;-44
2022/09/29 04:51:00;;;;;;;28.70;23.92;;;;;;;7.13;100.00;99814.28;5021463;28;20674;-43
2022/09/29 04:53:26;;;;;;;30.60;24.85;;;;;;;7.08;100.00;99816.25;5016760;28;20267;-44
2022/09/29 04:55:52;;;;;;;26.75;23.90;;;;;;;7.08;100.00;99818.91;5024544;28;20617;-45
2022/09/29 04:58:17;;;;;;;26.98;23.80;;;;;;;7.10;100.00;99817.03;5020200;28;20511;-43
2022/09/29 05:00:43;;;;;;;29.83;24.48;;;;;;;7.07;100.00;99828.69;5021078;28;20310;-46
2022/09/29 05:03:08;;;;;;;27.55;24.60;;;;;;;7.07;100.00;99825.16;5022882;28;20572;-43
2022/09/29 05:05:34;;;;;;;27.10;23.83;;;;;;;7.10;100.00;99830.34;5017439;28;20192;-42
2022/09/29 05:08:03;;;;;;;27.48;24.45;;;;;;;7.11;100.00;99826.78;5017791;28;20179;-43
2022/09/29 05:10:29;;;;;;;25.85;22.52;;;;;;;7.14;100.00;99819.53;5026409;28;20550;-46
2022/09/29 05:12:55;;;;;;;27.63;24.55;;;;;;;7.09;100.00;99824.19;5025513;28;20180;-45
2022/09/29 05:15:20;;;;;;;28.70;25.27;;;;;;;7.03;100.00;99828.88;5014132;28;20215;-46
2022/09/29 05:17:47;;;;;;;30.08;24.48;;;;;;;7.00;100.00;99838.72;5017954;28;20272;-47
2022/09/29 05:20:12;;;;;;;33.67;26.20;;;;;;;7.04;100.00;99827.94;5019976;28;20683;-47
2022/09/29 05:22:38;;;;;;;25.30;22.52;;;;;;;7.17;100.00;99834.50;5020489;28;20201;-49
2022/09/29 05:25:04;;;;;;;30.58;25.55;;;;;;;7.14;100.00;99823.97;5014666;28;20561;-47
2022/09/29 05:27:30;;;;;;;26.92;24.13;;;;;;;7.14;100.00;99832.84;5017496;28;20189;-47
2022/09/29 05:29:55;;;;;;;27.10;24.25;;;;;;;7.14;100.00;99832.84;5018976;28;20641;-48
2022/09/29 05:32:21;;;;;;;26.92;23.42;;;;;;;7.13;100.00;99832.91;5020939;28;20173;-48
2022/09/29 05:34:46;;;;;;;27.70;24.73;;;;;;;7.12;100.00;99831.16;5016958;28;20184;-48
2022/09/29 05:37:12;;;;;;;29.50;23.77;;;;;;;7.06;100.00;99834.06;5018195;28;20196;-47
2022/09/29 05:39:38;;;;;;;28.15;24.77;;;;;;;7.12;100.00;99831.16;5016393;28;20203;-46
2022/09/29 05:42:05;;;;;;;26.63;23.83;;;;;;;7.15;100.00;99823.94;5018652;28;20651;-46
2022/09/29 05:44:32;;;;;;;29.17;22.85;;;;;;;7.18;100.00;99822.94;5021226;28;20813;-47
2022/09/29 05:46:58;;;;;;;29.35;24.65;;;;;;;7.13;100.00;99824.94;5018456;28;20233;-47
2022/09/29 05:49:23;;;;;;;26.48;23.42;;;;;;;7.13;100.00;99830.25;5020301;28;20204;-47
2022/09/29 05:51:49;;;;;;;25.73;22.95;;;;;;;7.17;100.00;99823.84;5014826;28;20234;-48
2022/09/29 05:54:15;;;;;;;27.83;22.98;;;;;;;7.15;100.00;99828.38;5013001;28;20220;-47
2022/09/29 05:56:40;;;;;;;25.65;22.45;;;;;;;7.25;100.00;99832.41;5014687;28;20207;-50
2022/09/29 05:59:08;;;;;;;29.48;23.00;;;;;;;7.24;100.00;99825.34;5021074;28;20211;-45
2022/09/29 06:01:34;;;;;;;25.75;22.95;;;;;;;7.30;100.00;99829.56;5022070;28;20206;-47
2022/09/29 06:04:00;;;;;;;26.33;22.48;;;;;;;7.33;100.00;99824.97;5021168;28;20176;-48
2022/09/29 06:06:27;;;;;;;28.65;23.00;;;;;;;7.31;100.00;99820.66;5020430;28;20200;-49
2022/09/29 06:08:54;;;;;;;25.77;22.95;;;;;;;7.30;100.00;99819.75;5026972;28;20183;-47
2022/09/29 06:11:26;;;;;;;26.80;22.88;;;;;;;7.33;100.00;99821.44;5020715;28;20587;-47
2022/09/29 06:13:52;;;;;;;28.80;21.20;;;;;;;7.37;100.00;99815.06;5018667;28;20196;-46
2022/09/29 06:16:21;;;;;;;26.55;22.33;;;;;;;7.38;100.00;99812.31;5018312;28;20196;-46
2022/09/29 06:18:47;;;;;;;26.65;22.00;;;;;;;7.42;100.00;99818.41;5024850;28;20176;-48
2022/09/29 06:21:22;;;;;;;25.60;22.70;;;;;;;7.43;100.00;99818.34;5014859;28;20196;-48
2022/09/29 06:23:48;;;;;;;27.40;23.27;;;;;;;7.50;100.00;99826.06;5019389;28;20194;-48
2022/09/29 06:26:17;;;;;;;27.00;22.55;;;;;;;7.46;100.00;99819.16;5019454;28;20207;-48
2022/09/29 06:28:42;;;;;;;25.02;21.75;;;;;;;7.50;100.00;99818.06;5017564;28;20535;-53
2022/09/29 06:31:19;;;;;;;25.88;21.52;;;;;;;7.54;100.00;99819.66;5018784;28;20960;-47
2022/09/29 06:33:45;;;;;;;26.83;20.58;;;;;;;7.57;100.00;99823.09;5017911;28;20194;-45
2022/09/29 06:39:19;;;;;;;27.38;22.33;;;;;;;7.65;100.00;99817.41;5015375;28;20534;-52
2022/09/29 06:41:53;;;;;;;29.50;22.92;;;;;;;7.69;100.00;99816.34;5023258;28;20248;-49
2022/09/29 06:44:20;;;;;;;28.75;23.70;;;;;;;7.67;100.00;99817.38;5016443;28;20266;-50
2022/09/29 06:46:47;;;;;;;29.30;23.90;;;;;;;7.69;100.00;99828.81;5026061;28;20187;-49
2022/09/29 06:49:14;;;;;;;29.98;23.00;;;;;;;7.70;100.00;99817.25;5022978;28;20192;-51
2022/09/29 06:51:40;;;;;;;31.60;22.90;;;;;;;7.71;100.00;99819.81;5024482;28;20559;-48
2022/09/29 06:54:05;;;;;;;26.17;20.92;;;;;;;7.79;100.00;99835.50;5015912;28;20199;-52
2022/09/29 06:56:30;;;;;;;24.95;22.27;;;;;;;7.84;100.00;99828.16;5020390;28;20570;-49
2022/09/29 06:58:56;;;;;;;26.55;23.13;;;;;;;7.81;100.00;99831.84;5019319;28;20669;-48
2022/09/29 07:01:21;;;;;;;29.95;23.45;;;;;;;7.82;100.00;99840.69;5019668;28;20209;-48
2022/09/29 07:03:47;;;;;;;30.70;24.13;;;;;;;7.89;100.00;99838.63;5020058;28;20654;-50
2022/09/29 07:06:12;;;;;;;30.35;24.73;;;;;;;7.91;100.00;99837.63;5018044;28;20258;-50
2022/09/29 07:08:39;;;;;;;30.70;25.02;;;;;;;7.96;100.00;99851.66;5007868;28;20580;-48
2022/09/29 07:11:08;;;;;;;32.40;24.25;;;;;;;7.99;100.00;99847.97;5014681;28;20751;-48
2022/09/29 07:13:35;;;;;;;26.05;21.25;;;;;;;8.05;100.00;99859.25;5021194;28;20196;-49
2022/09/29 07:16:11;;;;;;;28.42;23.13;;;;;;;8.09;100.00;99854.66;5010524;28;20188;-49
2022/09/29 07:18:38;;;;;;;27.45;23.27;;;;;;;8.15;100.00;99861.50;5014567;28;20187;-51
2022/09/29 07:21:05;;;;;;;30.27;23.63;;;;;;;8.11;100.00;99866.13;5013750;28;20203;-49
2022/09/29 07:23:32;;;;;;;32.45;23.77;;;;;;;8.10;100.00;99863.53;5020292;28;20269;-50
2022/09/29 07:25:57;;;;;;;30.58;22.70;;;;;;;8.11;100.00;99866.13;5018581;28;20187;-49
2022/09/29 07:28:23;;;;;;;27.98;21.23;;;;;;;8.11;100.00;99862.56;5017503;28;20341;-49
2022/09/29 07:31:06;;;;;;;28.52;21.75;;;;;;;8.15;100.00;99867.72;5013901;28;20227;-49
2022/09/29 07:33:32;;;;;;;31.80;23.05;;;;;;;8.09;100.00;99867.13;5026324;28;20660;-49
2022/09/29 07:35:59;;;;;;;31.27;22.00;;;;;;;8.11;100.00;99871.47;5016889;28;20656;-51
2022/09/29 07:38:26;;;;;;;27.98;21.33;;;;;;;8.18;100.00;99872.94;5014528;28;20179;-50
2022/09/29 07:40:52;;;;;;;29.27;21.73;;;;;;;8.12;100.00;99875.84;5013773;28;20551;-49
2022/09/29 07:43:17;;;;;;;28.27;22.02;;;;;;;8.18;100.00;99872.94;5011847;28;20257;-50
2022/09/29 07:45:50;;;;;;;27.75;21.67;;;;;;;8.21;100.00;99871.94;5021780;28;20270;-52
2022/09/29 07:48:16;;;;;;;27.88;22.13;;;;;;;8.27;100.00;99878.81;5019152;28;20194;-52
2022/09/29 07:50:43;;;;;;;27.27;20.92;;;;;;;8.22;100.00;99879.88;5017386;28;20286;-49
2022/09/29 07:53:10;;;;;;;26.25;20.45;;;;;;;8.24;100.00;99883.34;5013155;28;20273;-52
2022/09/29 07:55:35;;;;;;;26.00;19.80;;;;;;;8.33;100.00;99881.19;5019802;28;20215;-49
2022/09/29 07:58:01;;;;;;;27.85;21.05;;;;;;;8.34;100.00;99893.59;5016553;28;20571;-51
2022/09/29 08:00:29;;;;;;;24.67;19.23;;;;;;;8.40;100.00;99883.56;5013874;28;20200;-49
2022/09/29 08:02:58;;;;;;;29.13;20.08;;;;;;;8.49;100.00;99889.44;5013652;28;20196;-48
2022/09/29 08:05:26;;;;;;;25.30;18.60;;;;;;;8.49;100.00;99882.28;5019911;28;20202;-50
2022/09/29 08:07:52;;;;;;;22.92;17.08;;;;;;;8.47;100.00;99878.81;5018153;28;20263;-50
2022/09/29 08:10:18;;;;;;;22.17;17.30;;;;;;;8.57;100.00;99889.94;5016759;28;20216;-49
2022/09/29 08:12:44;;;;;;;20.73;16.58;;;;;;;8.58;100.00;99887.19;5019339;28;20225;-50
2022/09/29 08:15:09;;;;;;;16.35;13.50;;;;;;;8.60;100.00;99900.50;5016726;28;20176;-48
2022/09/29 08:17:35;;;;;;;18.08;14.80;;;;;;;8.63;100.00;99900.34;5025382;28;20192;-49
2022/09/29 08:20:00;;;;;;;17.10;12.75;;;;;;;8.65;100.00;99895.78;5019912;28;20274;-50
2022/09/29 08:22:26;;;;;;;15.95;12.45;;;;;;;8.68;100.00;99908.13;5021610;28;20268;-51
2022/09/29 08:24:51;;;;;;;17.13;12.60;;;;;;;8.66;100.00;99901.06;5018807;28;20197;-48
2022/09/29 08:27:17;;;;;;;16.77;14.00;;;;;;;8.67;100.00;99899.25;5017069;28;20240;-50
2022/09/29 08:29:42;;;;;;;15.38;12.23;;;;;;;8.67;100.00;99901.94;5027052;28;20343;-50
2022/09/29 08:32:08;;;;;;;15.25;11.27;;;;;;;8.57;100.00;99908.63;5016870;28;20185;-50
2022/09/29 08:34:33;;;;;;;13.48;11.98;;;;;;;8.61;100.00;99911.06;5020448;28;20551;-51
2022/09/29 08:36:59;;;;;;;14.25;11.10;;;;;;;8.61;100.00;99908.41;5018770;28;20322;-48
2022/09/29 08:39:24;;;;;;;14.50;11.63;;;;;;;8.71;100.00;99908.00;5020572;28;20651;-50
2022/09/29 08:41:53;;;;;;;12.68;10.90;;;;;;;8.67;100.00;99917.97;5021445;28;20225;-48
2022/09/29 08:44:39;;;;;;;12.05;10.80;;;;;;;8.64;100.00;99907.44;5020375;28;20333;-50
2022/09/29 08:47:23;;;;;;;11.32;10.10;;;;;;;8.57;100.00;99911.28;5020377;28;20204;-48
2022/09/29 08:49:56;;;;;;;11.43;9.73;;;;;;;8.54;100.00;99906.09;5020134;28;20220;-52
2022/09/29 08:52:27;;;;;;;11.85;10.55;;;;;;;8.57;100.00;99924.63;5015611;28;20536;-51
2022/09/29 08:55:22;;;;;;;13.75;11.60;;;;;;;8.57;100.00;99917.53;5011299;28;20196;-48
2022/09/29 08:58:01;;;;;;;14.07;12.57;;;;;;;8.54;100.00;99924.78;5023156;28;20283;-48
2022/09/29 09:00:42;;;;;;;13.82;12.10;;;;;;;8.56;100.00;99922.91;5016551;28;20212;-48
2022/09/29 09:03:20;;;;;;;13.05;11.57;;;;;;;8.51;100.00;99928.47;5016823;28;20577;-49
2022/09/29 09:06:04;;;;;;;13.73;11.57;;;;;;;8.53;100.00;99928.41;5020387;28;20203;-47
2022/09/29 09:08:42;;;;;;;9.82;8.52;;;;;;;8.48;100.00;99931.25;5016515;28;20201;-50
2022/09/29 09:11:32;;;;;;;9.68;8.77;;;;;;;8.57;100.00;99922.84;5016277;28;20573;-50
2022/09/29 09:14:29;;;;;;;6.75;6.00;;;;;;;8.49;100.00;99919.66;5029340;28;20214;-52
2022/09/29 09:17:19;;;;;;;7.78;4.80;;;;;;;8.50;100.00;99929.38;5019577;28;20184;-51
2022/09/29 09:19:56;;;;;;;7.13;4.72;;;;;;;8.56;100.00;99923.78;5012680;28;20258;-50
2022/09/29 09:22:30;;;;;;;5.05;4.00;;;;;;;8.56;100.00;99923.78;5012844;28;20212;-47
2022/09/29 09:24:55;;;;;;;3.80;3.40;;;;;;;8.51;100.00;99927.59;5021085;28;20203;-47
2022/09/29 09:27:26;;;;;;;5.22;2.90;;;;;;;8.50;100.00;99925.84;5016268;28;20669;-48
2022/09/29 09:30:02;;;;;;;2.28;2.17;;;;;;;8.56;100.00;99922.91;5016617;28;20593;-50
2022/09/29 09:32:31;;;;;;;2.30;1.55;;;;;;;8.51;100.00;99920.44;5017186;28;20172;-50
2022/09/29 09:35:19;;;;;;;1.58;1.48;;;;;;;8.54;100.00;99922.13;5017901;28;20193;-47
2022/09/29 09:37:47;;;;;;;1.17;1.17;;;;;;;8.65;100.00;99926.03;5017321;28;20242;-49
2022/09/29 09:40:20;;;;;;;1.42;1.33;;;;;;;8.63;100.00;99927.91;5019343;28;20219;-48
2022/09/29 09:43:21;;;;;;;2.30;1.50;;;;;;;8.68;100.00;99926.81;5017119;28;20224;-53
2022/09/29 09:45:55;;;;;;;1.50;1.08;;;;;;;8.59;100.00;99930.78;5005651;28;20250;-47
2022/09/29 09:48:36;;;;;;;2.80;1.10;;;;;;;8.60;100.00;99929.84;5022303;28;20274;-49
2022/09/29 09:51:33;;;;;;;1.95;1.10;;;;;;;8.56;100.00;99933.59;5018994;28;20208;-52
2022/09/29 09:54:08;;;;;;;1.17;1.13;;;;;;;8.56;100.00;99934.44;5023801;28;20276;-48
2022/09/29 09:57:09;;;;;;;1.40;1.00;;;;;;;8.64;100.00;99924.31;5017649;28;20172;-52
2022/09/29 09:59:41;;;;;;;2.03;0.98;;;;;;;8.64;100.00;99921.63;5019578;28;20892;-48
2022/09/29 10:02:16;;;;;;;1.20;1.00;;;;;;;8.63;100.00;99935.03;5018874;28;20208;-49
2022/09/29 10:04:42;;;;;;;1.40;1.00;;;;;;;8.64;100.00;99937.66;5018398;28;20231;-51
2022/09/29 10:07:09;;;;;;;1.23;0.90;;;;;;;8.57;100.00;99935.31;5022327;28;20177;-52
2022/09/29 10:09:34;;;;;;;1.55;1.05;;;;;;;8.56;100.00;99934.44;5015116;28;20700;-51
2022/09/29 10:12:01;;;;;;;0.95;0.90;;;;;;;8.66;100.00;99933.13;5017963;28;20228;-52
2022/09/29 10:14:27;;;;;;;0.80;0.80;;;;;;;8.66;100.00;99926.91;5017016;28;20542;-47
2022/09/29 10:17:09;;;;;;;1.65;1.10;;;;;;;8.69;100.00;99939.25;5015708;28;20181;-49
2022/09/29 10:20:00;;;;;;;0.95;0.95;;;;;;;8.73;100.00;99928.38;5013408;28;20192;-47
2022/09/29 10:22:28;;;;;;;1.20;1.05;;;;;;;8.81;100.00;99931.56;5011617;28;20204;-48
2022/09/29 10:25:10;;;;;;;3.08;1.40;;;;;;;8.82;100.00;99925.28;5013699;28;20176;-50
2022/09/29 10:27:41;;;;;;;1.20;1.13;;;;;;;8.74;100.00;99929.22;5019927;28;20184;-49
2022/09/29 10:30:21;;;;;;;0.80;0.80;;;;;;;8.73;100.00;99939.06;5016057;28;20204;-49
2022/09/29 10:32:47;;;;;;;0.98;0.88;;;;;;;8.78;100.00;99947.72;5018942;28;20215;-50
2022/09/29 10:35:21;;;;;;;1.02;1.00;;;;;;;8.79;100.00;99949.47;5024285;28;20200;-49
2022/09/29 10:37:58;;;;;;;1.42;0.90;;;;;;;8.77;100.00;99945.13;5014897;28;20183;-49
2022/09/29 10:40:23;;;;;;;3.83;1.10;;;;;;;8.72;100.00;99941.78;5017943;28;20652;-47
2022/09/29 10:42:50;;;;;;;1.10;1.00;;;;;;;8.79;100.00;99949.47;5013946;28;20204;-48
2022/09/29 10:45:27;;;;;;;2.05;1.00;;;;;;;8.77;100.00;99945.13;5018609;28;20643;-49
2022/09/29 10:47:59;;;;;;;1.10;1.00;;;;;;;8.70;100.00;99952.53;5015292;28;20188;-49
2022/09/29 10:50:29;;;;;;;2.60;0.98;;;;;;;8.70;100.00;99951.66;5016405;28;20266;-50
2022/09/29 10:52:57;;;;;;;1.55;1.10;;;;;;;8.78;100.00;99952.19;5016366;28;20558;-50
2022/09/29 10:55:27;;;;;;;2.55;1.25;;;;;;;8.78;100.00;99957.53;5013084;28;20181;-47
2022/09/29 10:57:55;;;;;;;2.65;1.58;;;;;;;8.81;100.00;99941.34;5015294;28;20753;-50
2022/09/29 11:00:34;;;;;;;2.15;1.38;;;;;;;8.79;100.00;99945.91;5021881;28;20634;-49
2022/09/29 11:03:05;;;;;;;1.80;1.70;;;;;;;8.81;100.00;99950.25;5010160;28;20215;-48
2022/09/29 11:05:31;;;;;;;2.05;1.95;;;;;;;8.89;100.00;99944.56;5025507;28;20192;-49
2022/09/29 11:07:57;;;;;;;2.88;1.50;;;;;;;8.82;100.00;99949.31;5016541;28;20540;-49
2022/09/29 11:10:32;;;;;;;1.98;1.77;;;;;;;8.83;100.00;99947.50;5018925;28;20213;-48
2022/09/29 11:13:18;;;;;;;2.60;2.40;;;;;;;8.86;100.00;99953.59;5014920;28;20191;-47
2022/09/29 11:15:43;;;;;;;3.17;2.10;;;;;;;8.82;100.00;99951.97;5016854;28;20196;-50
2022/09/29 11:18:23;;;;;;;2.60;2.40;;;;;;;8.86;100.00;99945.56;5010160;28;20169;-49
2022/09/29 11:20:58;;;;;;;2.63;2.42;;;;;;;8.84;100.00;99957.28;5022972;28;20219;-48
2022/09/29 11:23:42;;;;;;;2.65;2.35;;;;;;;8.89;100.00;99952.56;5013605;28;20357;-50
2022/09/29 11:26:23;;;;;;;2.50;2.30;;;;;;;8.87;100.00;99951.78;5017985;28;20187;-49
2022/09/29 11:29:06;;;;;;;2.25;2.05;;;;;;;8.96;100.00;99946.00;5016841;28;20180;-49
2022/09/29 11:31:45;;;;;;;3.08;2.08;;;;;;;8.86;100.00;99966.09;5014022;28;20196;-49
2022/09/29 11:34:25;;;;;;;3.00;2.33;;;;;;;8.90;100.00;99957.00;5011189;28;20188;-47
2022/09/29 11:37:09;;;;;;;2.67;2.47;;;;;;;8.93;100.00;99959.50;5022060;28;20184;-50
2022/09/29 11:39:41;;;;;;;2.40;2.20;;;;;;;8.86;100.00;99966.94;5016916;28;20208;-48
2022/09/29 11:42:22;;;;;;;2.55;2.10;;;;;;;8.83;100.00;99955.50;5019681;28;20642;-50